sensor_id;sensor_type;location;lat;lon;timestamp;P1;durP1;ratioP1;P2;durP2;ratioP2
67889;SDS011;54685;52.082;5.426;2023-11-21T00:00:14;33.10;;;14.93;;
67889;SDS011;54685;52.082;5.426;2023-11-21T00:02:42;32.72;;;14.30;;
67889;SDS011;54685;52.082;5.426;2023-11-21T00:05:13;28.83;;;14.00;;
67889;SDS011;54685;52.082;5.426;2023-11-21T00:07:40;26.38;;;14.52;;
67889;SDS011;54685;52.082;5.426;2023-11-21T00:10:08;27.00;;;14.65;;
67889;SDS011;54685;52.082;5.426;2023-11-21T00:12:37;29.30;;;14.38;;
67889;SDS011;54685;52.082;5.426;2023-11-21T00:15:04;26.73;;;14.25;;
67889;SDS011;54685;52.082;5.426;2023-11-21T00:17:31;30.30;;;15.00;;
67889;SDS011;54685;52.082;5.426;2023-11-21T00:19:59;28.15;;;15.40;;
67889;SDS011;54685;52.082;5.426;2023-11-21T00:22:26;34.60;;;15.57;;
67889;SDS011;54685;52.082;5.426;2023-11-21T00:24:53;34.65;;;14.05;;
67889;SDS011;54685;52.082;5.426;2023-11-21T00:27:19;25.02;;;13.70;;
67889;SDS011;54685;52.082;5.426;2023-11-21T00:29:46;27.08;;;13.50;;
67889;SDS011;54685;52.082;5.426;2023-11-21T00:32:13;28.95;;;13.98;;
67889;SDS011;54685;52.082;5.426;2023-11-21T00:34:40;25.42;;;13.60;;
67889;SDS011;54685;52.082;5.426;2023-11-21T00:37:08;28.52;;;13.60;;
67889;SDS011;54685;52.082;5.426;2023-11-21T00:39:36;26.75;;;13.60;;
67889;SDS011;54685;52.082;5.426;2023-11-21T00:42:05;32.45;;;14.07;;
67889;SDS011;54685;52.082;5.426;2023-11-21T00:44:32;32.63;;;15.02;;
67889;SDS011;54685;52.082;5.426;2023-11-21T00:47:01;25.63;;;13.32;;
67889;SDS011;54685;52.082;5.426;2023-11-21T00:49:29;26.67;;;13.23;;
67889;SDS011;54685;52.082;5.426;2023-11-21T00:51:56;23.40;;;13.07;;
67889;SDS011;54685;52.082;5.426;2023-11-21T00:54:26;23.77;;;13.27;;
67889;SDS011;54685;52.082;5.426;2023-11-21T00:56:55;20.38;;;12.38;;
67889;SDS011;54685;52.082;5.426;2023-11-21T00:59:22;27.52;;;12.95;;
67889;SDS011;54685;52.082;5.426;2023-11-21T01:01:49;24.60;;;13.10;;
67889;SDS011;54685;52.082;5.426;2023-11-21T01:04:16;23.38;;;12.85;;
67889;SDS011;54685;52.082;5.426;2023-11-21T01:06:43;22.75;;;13.05;;
67889;SDS011;54685;52.082;5.426;2023-11-21T01:09:13;22.00;;;12.35;;
67889;SDS011;54685;52.082;5.426;2023-11-21T01:11:40;20.73;;;12.02;;
67889;SDS011;54685;52.082;5.426;2023-11-21T01:14:07;19.33;;;11.65;;
67889;SDS011;54685;52.082;5.426;2023-11-21T01:16:35;20.83;;;11.02;;
67889;SDS011;54685;52.082;5.426;2023-11-21T01:19:02;18.55;;;10.40;;
67889;SDS011;54685;52.082;5.426;2023-11-21T01:21:31;20.13;;;10.70;;
67889;SDS011;54685;52.082;5.426;2023-11-21T01:23:58;14.70;;;10.02;;
67889;SDS011;54685;52.082;5.426;2023-11-21T01:26:25;19.25;;;10.52;;
67889;SDS011;54685;52.082;5.426;2023-11-21T01:28:52;18.33;;;9.77;;
67889;SDS011;54685;52.082;5.426;2023-11-21T01:31:19;13.32;;;8.50;;
67889;SDS011;54685;52.082;5.426;2023-11-21T01:33:47;18.23;;;9.35;;
67889;SDS011;54685;52.082;5.426;2023-11-21T01:36:14;15.23;;;9.25;;
67889;SDS011;54685;52.082;5.426;2023-11-21T01:38:44;12.90;;;9.10;;
67889;SDS011;54685;52.082;5.426;2023-11-21T01:41:12;17.40;;;9.45;;
67889;SDS011;54685;52.082;5.426;2023-11-21T01:43:41;16.70;;;8.77;;
67889;SDS011;54685;52.082;5.426;2023-11-21T01:46:08;26.17;;;10.45;;
67889;SDS011;54685;52.082;5.426;2023-11-21T01:48:36;15.10;;;9.40;;
67889;SDS011;54685;52.082;5.426;2023-11-21T01:51:05;16.63;;;9.88;;
67889;SDS011;54685;52.082;5.426;2023-11-21T01:53:32;18.08;;;10.43;;
67889;SDS011;54685;52.082;5.426;2023-11-21T01:56:00;18.42;;;9.77;;
67889;SDS011;54685;52.082;5.426;2023-11-21T01:58:27;13.75;;;8.82;;
67889;SDS011;54685;52.082;5.426;2023-11-21T02:00:54;17.60;;;8.77;;
67889;SDS011;54685;52.082;5.426;2023-11-21T02:03:24;16.83;;;9.13;;
67889;SDS011;54685;52.082;5.426;2023-11-21T02:05:53;15.27;;;9.35;;
67889;SDS011;54685;52.082;5.426;2023-11-21T02:08:20;12.38;;;8.80;;
67889;SDS011;54685;52.082;5.426;2023-11-21T02:10:47;11.93;;;8.27;;
67889;SDS011;54685;52.082;5.426;2023-11-21T02:13:14;15.32;;;9.48;;
67889;SDS011;54685;52.082;5.426;2023-11-21T02:15:43;14.98;;;9.10;;
67889;SDS011;54685;52.082;5.426;2023-11-21T02:18:10;23.90;;;10.15;;
67889;SDS011;54685;52.082;5.426;2023-11-21T02:20:37;18.05;;;10.05;;
67889;SDS011;54685;52.082;5.426;2023-11-21T02:23:08;16.90;;;9.98;;
67889;SDS011;54685;52.082;5.426;2023-11-21T02:25:35;19.35;;;10.77;;
67889;SDS011;54685;52.082;5.426;2023-11-21T02:28:04;18.50;;;10.77;;
67889;SDS011;54685;52.082;5.426;2023-11-21T02:30:31;15.35;;;9.48;;
67889;SDS011;54685;52.082;5.426;2023-11-21T02:32:59;20.65;;;9.48;;
67889;SDS011;54685;52.082;5.426;2023-11-21T02:35:27;20.23;;;9.60;;
67889;SDS011;54685;52.082;5.426;2023-11-21T02:37:54;16.90;;;10.10;;
67889;SDS011;54685;52.082;5.426;2023-11-21T02:40:23;17.58;;;9.27;;
67889;SDS011;54685;52.082;5.426;2023-11-21T02:42:54;17.90;;;9.02;;
67889;SDS011;54685;52.082;5.426;2023-11-21T02:45:21;14.95;;;8.52;;
67889;SDS011;54685;52.082;5.426;2023-11-21T02:47:51;14.88;;;9.23;;
67889;SDS011;54685;52.082;5.426;2023-11-21T02:50:20;13.00;;;8.02;;
67889;SDS011;54685;52.082;5.426;2023-11-21T02:52:50;17.55;;;9.45;;
67889;SDS011;54685;52.082;5.426;2023-11-21T02:55:17;17.02;;;8.98;;
67889;SDS011;54685;52.082;5.426;2023-11-21T02:57:47;16.85;;;9.35;;
67889;SDS011;54685;52.082;5.426;2023-11-21T03:00:14;24.73;;;9.75;;
67889;SDS011;54685;52.082;5.426;2023-11-21T03:02:43;18.15;;;9.57;;
67889;SDS011;54685;52.082;5.426;2023-11-21T03:05:10;18.00;;;9.50;;
67889;SDS011;54685;52.082;5.426;2023-11-21T03:07:38;22.55;;;9.35;;
67889;SDS011;54685;52.082;5.426;2023-11-21T03:10:08;16.50;;;8.40;;
67889;SDS011;54685;52.082;5.426;2023-11-21T03:12:37;17.98;;;9.90;;
67889;SDS011;54685;52.082;5.426;2023-11-21T03:15:08;21.20;;;9.45;;
67889;SDS011;54685;52.082;5.426;2023-11-21T03:17:36;21.17;;;9.27;;
67889;SDS011;54685;52.082;5.426;2023-11-21T03:20:04;23.70;;;10.68;;
67889;SDS011;54685;52.082;5.426;2023-11-21T03:22:31;21.10;;;11.13;;
67889;SDS011;54685;52.082;5.426;2023-11-21T03:25:00;24.70;;;11.35;;
67889;SDS011;54685;52.082;5.426;2023-11-21T03:27:28;20.67;;;10.10;;
67889;SDS011;54685;52.082;5.426;2023-11-21T03:29:55;22.75;;;11.38;;
67889;SDS011;54685;52.082;5.426;2023-11-21T03:32:22;19.45;;;10.38;;
67889;SDS011;54685;52.082;5.426;2023-11-21T03:34:56;21.02;;;11.10;;
67889;SDS011;54685;52.082;5.426;2023-11-21T03:37:27;24.75;;;11.50;;
67889;SDS011;54685;52.082;5.426;2023-11-21T03:39:55;22.77;;;12.32;;
67889;SDS011;54685;52.082;5.426;2023-11-21T03:42:23;22.52;;;12.13;;
67889;SDS011;54685;52.082;5.426;2023-11-21T03:44:53;26.48;;;12.32;;
67889;SDS011;54685;52.082;5.426;2023-11-21T03:47:21;21.60;;;11.88;;
67889;SDS011;54685;52.082;5.426;2023-11-21T03:49:47;26.20;;;12.50;;
67889;SDS011;54685;52.082;5.426;2023-11-21T03:52:16;19.55;;;11.52;;
67889;SDS011;54685;52.082;5.426;2023-11-21T03:54:46;20.05;;;11.45;;
67889;SDS011;54685;52.082;5.426;2023-11-21T03:57:15;22.13;;;11.40;;
67889;SDS011;54685;52.082;5.426;2023-11-21T03:59:43;25.30;;;12.07;;
67889;SDS011;54685;52.082;5.426;2023-11-21T04:02:10;25.75;;;12.13;;
67889;SDS011;54685;52.082;5.426;2023-11-21T04:04:37;23.90;;;11.65;;
67889;SDS011;54685;52.082;5.426;2023-11-21T04:07:05;26.52;;;12.50;;
67889;SDS011;54685;52.082;5.426;2023-11-21T04:09:32;24.88;;;11.88;;
67889;SDS011;54685;52.082;5.426;2023-11-21T04:11:59;26.17;;;12.35;;
67889;SDS011;54685;52.082;5.426;2023-11-21T04:14:27;28.50;;;13.88;;
67889;SDS011;54685;52.082;5.426;2023-11-21T04:16:54;34.55;;;14.70;;
67889;SDS011;54685;52.082;5.426;2023-11-21T04:19:21;30.10;;;13.55;;
67889;SDS011;54685;52.082;5.426;2023-11-21T04:21:48;24.50;;;12.57;;
67889;SDS011;54685;52.082;5.426;2023-11-21T04:24:16;27.77;;;13.48;;
67889;SDS011;54685;52.082;5.426;2023-11-21T04:26:44;26.75;;;13.65;;
67889;SDS011;54685;52.082;5.426;2023-11-21T04:29:11;23.88;;;12.10;;
67889;SDS011;54685;52.082;5.426;2023-11-21T04:31:38;32.00;;;14.20;;
67889;SDS011;54685;52.082;5.426;2023-11-21T04:34:05;28.98;;;13.23;;
67889;SDS011;54685;52.082;5.426;2023-11-21T04:36:32;25.80;;;12.35;;
67889;SDS011;54685;52.082;5.426;2023-11-21T04:38:59;26.35;;;13.18;;
67889;SDS011;54685;52.082;5.426;2023-11-21T04:41:26;32.50;;;13.18;;
67889;SDS011;54685;52.082;5.426;2023-11-21T04:43:53;33.35;;;13.60;;
67889;SDS011;54685;52.082;5.426;2023-11-21T04:46:20;27.58;;;12.85;;
67889;SDS011;54685;52.082;5.426;2023-11-21T04:48:48;22.75;;;13.07;;
67889;SDS011;54685;52.082;5.426;2023-11-21T04:51:17;28.83;;;13.95;;
67889;SDS011;54685;52.082;5.426;2023-11-21T04:53:44;32.47;;;15.35;;
67889;SDS011;54685;52.082;5.426;2023-11-21T04:56:11;30.92;;;15.27;;
67889;SDS011;54685;52.082;5.426;2023-11-21T04:58:38;25.13;;;13.25;;
67889;SDS011;54685;52.082;5.426;2023-11-21T05:01:07;31.05;;;13.15;;
67889;SDS011;54685;52.082;5.426;2023-11-21T05:03:34;28.15;;;14.30;;
67889;SDS011;54685;52.082;5.426;2023-11-21T05:06:02;33.58;;;14.50;;
67889;SDS011;54685;52.082;5.426;2023-11-21T05:08:33;34.83;;;14.70;;
67889;SDS011;54685;52.082;5.426;2023-11-21T05:11:00;34.92;;;14.13;;
67889;SDS011;54685;52.082;5.426;2023-11-21T05:13:27;28.25;;;14.80;;
67889;SDS011;54685;52.082;5.426;2023-11-21T05:15:55;30.33;;;13.10;;
67889;SDS011;54685;52.082;5.426;2023-11-21T05:18:25;33.03;;;13.45;;
67889;SDS011;54685;52.082;5.426;2023-11-21T05:20:56;28.10;;;13.82;;
67889;SDS011;54685;52.082;5.426;2023-11-21T05:23:24;29.02;;;12.75;;
67889;SDS011;54685;52.082;5.426;2023-11-21T05:25:51;34.53;;;13.70;;
67889;SDS011;54685;52.082;5.426;2023-11-21T05:28:18;29.17;;;14.15;;
67889;SDS011;54685;52.082;5.426;2023-11-21T05:30:46;28.95;;;13.23;;
67889;SDS011;54685;52.082;5.426;2023-11-21T05:33:13;32.50;;;13.70;;
67889;SDS011;54685;52.082;5.426;2023-11-21T05:35:39;27.60;;;12.23;;
67889;SDS011;54685;52.082;5.426;2023-11-21T05:38:06;31.23;;;15.02;;
67889;SDS011;54685;52.082;5.426;2023-11-21T05:40:33;31.13;;;13.15;;
67889;SDS011;54685;52.082;5.426;2023-11-21T05:43:00;32.17;;;13.25;;
67889;SDS011;54685;52.082;5.426;2023-11-21T05:45:28;31.20;;;14.65;;
67889;SDS011;54685;52.082;5.426;2023-11-21T05:47:57;28.02;;;14.10;;
67889;SDS011;54685;52.082;5.426;2023-11-21T05:50:27;26.42;;;12.77;;
67889;SDS011;54685;52.082;5.426;2023-11-21T05:52:54;29.33;;;13.20;;
67889;SDS011;54685;52.082;5.426;2023-11-21T05:55:22;27.58;;;13.38;;
67889;SDS011;54685;52.082;5.426;2023-11-21T05:57:52;29.88;;;12.80;;
67889;SDS011;54685;52.082;5.426;2023-11-21T06:00:19;39.65;;;13.18;;
67889;SDS011;54685;52.082;5.426;2023-11-21T06:02:49;27.95;;;12.90;;
67889;SDS011;54685;52.082;5.426;2023-11-21T06:05:17;33.67;;;13.35;;
67889;SDS011;54685;52.082;5.426;2023-11-21T06:07:45;23.92;;;12.20;;
67889;SDS011;54685;52.082;5.426;2023-11-21T06:10:12;32.45;;;13.75;;
67889;SDS011;54685;52.082;5.426;2023-11-21T06:12:41;26.17;;;12.80;;
67889;SDS011;54685;52.082;5.426;2023-11-21T06:15:10;26.13;;;13.02;;
67889;SDS011;54685;52.082;5.426;2023-11-21T06:17:41;29.75;;;12.02;;
67889;SDS011;54685;52.082;5.426;2023-11-21T06:20:09;27.20;;;12.30;;
67889;SDS011;54685;52.082;5.426;2023-11-21T06:22:41;33.10;;;13.23;;
67889;SDS011;54685;52.082;5.426;2023-11-21T06:25:09;30.85;;;13.93;;
67889;SDS011;54685;52.082;5.426;2023-11-21T06:27:40;33.00;;;12.77;;
67889;SDS011;54685;52.082;5.426;2023-11-21T06:30:08;38.20;;;14.02;;
67889;SDS011;54685;52.082;5.426;2023-11-21T06:32:36;31.13;;;13.35;;
67889;SDS011;54685;52.082;5.426;2023-11-21T06:35:04;37.33;;;14.73;;
67889;SDS011;54685;52.082;5.426;2023-11-21T06:37:31;29.15;;;13.85;;
67889;SDS011;54685;52.082;5.426;2023-11-21T06:39:59;22.38;;;12.82;;
67889;SDS011;54685;52.082;5.426;2023-11-21T06:42:27;30.05;;;14.00;;
67889;SDS011;54685;52.082;5.426;2023-11-21T06:44:55;30.80;;;14.40;;
67889;SDS011;54685;52.082;5.426;2023-11-21T06:47:24;35.22;;;14.10;;
67889;SDS011;54685;52.082;5.426;2023-11-21T06:49:52;29.25;;;13.65;;
67889;SDS011;54685;52.082;5.426;2023-11-21T06:52:19;38.00;;;15.05;;
67889;SDS011;54685;52.082;5.426;2023-11-21T06:54:47;32.58;;;15.88;;
67889;SDS011;54685;52.082;5.426;2023-11-21T06:57:16;36.50;;;15.27;;
67889;SDS011;54685;52.082;5.426;2023-11-21T06:59:44;29.40;;;13.95;;
67889;SDS011;54685;52.082;5.426;2023-11-21T07:02:11;35.65;;;14.80;;
67889;SDS011;54685;52.082;5.426;2023-11-21T07:04:38;34.22;;;15.23;;
67889;SDS011;54685;52.082;5.426;2023-11-21T07:07:06;43.75;;;15.45;;
67889;SDS011;54685;52.082;5.426;2023-11-21T07:09:36;33.72;;;15.80;;
67889;SDS011;54685;52.082;5.426;2023-11-21T07:12:03;38.13;;;15.75;;
67889;SDS011;54685;52.082;5.426;2023-11-21T07:14:36;37.55;;;15.23;;
67889;SDS011;54685;52.082;5.426;2023-11-21T07:17:05;36.10;;;16.50;;
67889;SDS011;54685;52.082;5.426;2023-11-21T07:19:33;43.35;;;16.48;;
67889;SDS011;54685;52.082;5.426;2023-11-21T07:22:00;35.80;;;16.17;;
67889;SDS011;54685;52.082;5.426;2023-11-21T07:24:27;37.95;;;17.30;;
67889;SDS011;54685;52.082;5.426;2023-11-21T07:26:54;37.40;;;17.95;;
67889;SDS011;54685;52.082;5.426;2023-11-21T07:29:23;29.92;;;15.10;;
67889;SDS011;54685;52.082;5.426;2023-11-21T07:31:55;46.00;;;18.38;;
67889;SDS011;54685;52.082;5.426;2023-11-21T07:34:23;40.80;;;16.27;;
67889;SDS011;54685;52.082;5.426;2023-11-21T07:36:49;38.63;;;15.45;;
67889;SDS011;54685;52.082;5.426;2023-11-21T07:39:16;27.60;;;13.82;;
67889;SDS011;54685;52.082;5.426;2023-11-21T07:41:43;30.08;;;13.50;;
67889;SDS011;54685;52.082;5.426;2023-11-21T07:44:16;40.00;;;15.25;;
67889;SDS011;54685;52.082;5.426;2023-11-21T07:46:47;30.50;;;13.93;;
67889;SDS011;54685;52.082;5.426;2023-11-21T07:49:17;32.30;;;13.95;;
67889;SDS011;54685;52.082;5.426;2023-11-21T07:51:47;33.63;;;13.52;;
67889;SDS011;54685;52.082;5.426;2023-11-21T07:54:14;37.70;;;14.65;;
67889;SDS011;54685;52.082;5.426;2023-11-21T07:56:42;36.63;;;16.27;;
67889;SDS011;54685;52.082;5.426;2023-11-21T07:59:09;34.55;;;14.07;;
67889;SDS011;54685;52.082;5.426;2023-11-21T08:01:36;31.38;;;14.95;;
67889;SDS011;54685;52.082;5.426;2023-11-21T08:04:03;37.50;;;15.15;;
67889;SDS011;54685;52.082;5.426;2023-11-21T08:06:31;36.22;;;14.18;;
67889;SDS011;54685;52.082;5.426;2023-11-21T08:08:59;37.30;;;13.68;;
67889;SDS011;54685;52.082;5.426;2023-11-21T08:11:25;27.27;;;12.15;;
67889;SDS011;54685;52.082;5.426;2023-11-21T08:13:55;22.95;;;11.65;;
67889;SDS011;54685;52.082;5.426;2023-11-21T08:16:23;31.50;;;12.32;;
67889;SDS011;54685;52.082;5.426;2023-11-21T08:18:50;31.35;;;12.48;;
67889;SDS011;54685;52.082;5.426;2023-11-21T08:21:17;29.10;;;11.68;;
67889;SDS011;54685;52.082;5.426;2023-11-21T08:23:45;26.95;;;11.75;;
67889;SDS011;54685;52.082;5.426;2023-11-21T08:26:16;30.90;;;11.52;;
67889;SDS011;54685;52.082;5.426;2023-11-21T08:28:44;26.17;;;10.55;;
67889;SDS011;54685;52.082;5.426;2023-11-21T08:31:12;27.17;;;11.45;;
67889;SDS011;54685;52.082;5.426;2023-11-21T08:33:41;28.80;;;11.40;;
67889;SDS011;54685;52.082;5.426;2023-11-21T08:36:08;30.83;;;10.27;;
67889;SDS011;54685;52.082;5.426;2023-11-21T08:38:38;26.02;;;10.15;;
67889;SDS011;54685;52.082;5.426;2023-11-21T08:41:05;24.80;;;9.85;;
67889;SDS011;54685;52.082;5.426;2023-11-21T08:43:35;24.35;;;9.68;;
67889;SDS011;54685;52.082;5.426;2023-11-21T08:46:02;21.58;;;9.68;;
67889;SDS011;54685;52.082;5.426;2023-11-21T08:48:29;23.63;;;10.02;;
67889;SDS011;54685;52.082;5.426;2023-11-21T08:50:56;25.02;;;9.90;;
67889;SDS011;54685;52.082;5.426;2023-11-21T08:53:23;17.65;;;8.02;;
67889;SDS011;54685;52.082;5.426;2023-11-21T08:55:52;21.35;;;8.50;;
67889;SDS011;54685;52.082;5.426;2023-11-21T08:58:20;26.15;;;9.27;;
67889;SDS011;54685;52.082;5.426;2023-11-21T09:00:47;19.02;;;9.75;;
67889;SDS011;54685;52.082;5.426;2023-11-21T09:03:14;23.40;;;9.10;;
67889;SDS011;54685;52.082;5.426;2023-11-21T09:05:41;18.85;;;8.88;;
67889;SDS011;54685;52.082;5.426;2023-11-21T09:08:11;21.50;;;10.07;;
67889;SDS011;54685;52.082;5.426;2023-11-21T09:10:38;18.77;;;10.10;;
67889;SDS011;54685;52.082;5.426;2023-11-21T09:13:06;24.42;;;10.88;;
67889;SDS011;54685;52.082;5.426;2023-11-21T09:15:35;21.42;;;11.15;;
67889;SDS011;54685;52.082;5.426;2023-11-21T09:18:02;28.20;;;12.35;;
67889;SDS011;54685;52.082;5.426;2023-11-21T09:20:29;22.23;;;11.70;;
67889;SDS011;54685;52.082;5.426;2023-11-21T09:22:56;27.30;;;12.68;;
67889;SDS011;54685;52.082;5.426;2023-11-21T09:25:23;31.98;;;13.73;;
67889;SDS011;54685;52.082;5.426;2023-11-21T09:27:51;25.27;;;13.15;;
67889;SDS011;54685;52.082;5.426;2023-11-21T09:30:18;23.65;;;12.15;;
67889;SDS011;54685;52.082;5.426;2023-11-21T09:32:48;24.35;;;13.07;;
67889;SDS011;54685;52.082;5.426;2023-11-21T09:35:16;20.17;;;11.55;;
67889;SDS011;54685;52.082;5.426;2023-11-21T09:37:44;26.58;;;14.05;;
67889;SDS011;54685;52.082;5.426;2023-11-21T09:40:15;27.10;;;13.47;;
67889;SDS011;54685;52.082;5.426;2023-11-21T09:42:56;28.27;;;14.80;;
67889;SDS011;54685;52.082;5.426;2023-11-21T09:45:27;28.63;;;14.98;;
67889;SDS011;54685;52.082;5.426;2023-11-21T09:47:58;26.45;;;14.02;;
67889;SDS011;54685;52.082;5.426;2023-11-21T09:50:26;31.55;;;14.75;;
67889;SDS011;54685;52.082;5.426;2023-11-21T09:53:13;27.92;;;14.13;;
67889;SDS011;54685;52.082;5.426;2023-11-21T09:55:46;24.63;;;14.13;;
67889;SDS011;54685;52.082;5.426;2023-11-21T09:58:14;30.02;;;14.43;;
67889;SDS011;54685;52.082;5.426;2023-11-21T10:00:43;29.08;;;13.10;;
67889;SDS011;54685;52.082;5.426;2023-11-21T10:03:11;25.17;;;13.73;;
67889;SDS011;54685;52.082;5.426;2023-11-21T10:05:40;23.58;;;12.68;;
67889;SDS011;54685;52.082;5.426;2023-11-21T10:08:09;26.05;;;15.05;;
67889;SDS011;54685;52.082;5.426;2023-11-21T10:10:41;27.92;;;14.20;;
67889;SDS011;54685;52.082;5.426;2023-11-21T10:13:15;28.55;;;14.35;;
67889;SDS011;54685;52.082;5.426;2023-11-21T10:15:44;26.73;;;14.00;;
67889;SDS011;54685;52.082;5.426;2023-11-21T10:18:16;24.30;;;13.38;;
67889;SDS011;54685;52.082;5.426;2023-11-21T10:20:44;24.58;;;13.90;;
67889;SDS011;54685;52.082;5.426;2023-11-21T10:23:20;25.80;;;13.55;;
67889;SDS011;54685;52.082;5.426;2023-11-21T10:25:50;26.08;;;12.77;;
67889;SDS011;54685;52.082;5.426;2023-11-21T10:28:19;19.23;;;12.25;;
67889;SDS011;54685;52.082;5.426;2023-11-21T10:30:47;22.08;;;12.25;;
67889;SDS011;54685;52.082;5.426;2023-11-21T10:33:14;22.75;;;12.38;;
67889;SDS011;54685;52.082;5.426;2023-11-21T10:35:45;23.70;;;12.75;;
67889;SDS011;54685;52.082;5.426;2023-11-21T10:38:21;21.50;;;12.60;;
67889;SDS011;54685;52.082;5.426;2023-11-21T10:40:49;17.25;;;11.82;;
67889;SDS011;54685;52.082;5.426;2023-11-21T10:43:17;20.17;;;12.30;;
67889;SDS011;54685;52.082;5.426;2023-11-21T10:45:45;18.10;;;11.30;;
67889;SDS011;54685;52.082;5.426;2023-11-21T10:48:15;22.45;;;12.57;;
67889;SDS011;54685;52.082;5.426;2023-11-21T10:50:43;19.20;;;12.30;;
67889;SDS011;54685;52.082;5.426;2023-11-21T10:53:11;20.27;;;11.57;;
67889;SDS011;54685;52.082;5.426;2023-11-21T10:55:42;18.77;;;11.15;;
67889;SDS011;54685;52.082;5.426;2023-11-21T10:58:11;19.80;;;10.77;;
67889;SDS011;54685;52.082;5.426;2023-11-21T11:00:41;15.23;;;9.85;;
67889;SDS011;54685;52.082;5.426;2023-11-21T11:03:12;16.83;;;10.40;;
67889;SDS011;54685;52.082;5.426;2023-11-21T11:05:46;19.17;;;10.90;;
67889;SDS011;54685;52.082;5.426;2023-11-21T11:08:21;17.50;;;10.55;;
67889;SDS011;54685;52.082;5.426;2023-11-21T11:10:53;18.85;;;11.18;;
67889;SDS011;54685;52.082;5.426;2023-11-21T11:13:21;18.58;;;10.25;;
67889;SDS011;54685;52.082;5.426;2023-11-21T11:15:50;21.13;;;9.95;;
67889;SDS011;54685;52.082;5.426;2023-11-21T11:18:17;15.73;;;9.20;;
67889;SDS011;54685;52.082;5.426;2023-11-21T11:20:47;14.95;;;8.88;;
67889;SDS011;54685;52.082;5.426;2023-11-21T11:28:47;20.13;;;10.65;;
67889;SDS011;54685;52.082;5.426;2023-11-21T11:33:53;18.45;;;10.13;;
67889;SDS011;54685;52.082;5.426;2023-11-21T11:36:26;22.30;;;12.45;;
67889;SDS011;54685;52.082;5.426;2023-11-21T11:38:58;24.67;;;12.68;;
67889;SDS011;54685;52.082;5.426;2023-11-21T11:41:31;25.17;;;13.43;;
67889;SDS011;54685;52.082;5.426;2023-11-21T11:44:01;23.20;;;12.65;;
67889;SDS011;54685;52.082;5.426;2023-11-21T11:49:28;21.77;;;12.65;;
67889;SDS011;54685;52.082;5.426;2023-11-21T11:55:01;17.55;;;11.13;;
67889;SDS011;54685;52.082;5.426;2023-11-21T11:57:31;18.98;;;11.23;;
67889;SDS011;54685;52.082;5.426;2023-11-21T12:02:39;16.60;;;12.07;;
67889;SDS011;54685;52.082;5.426;2023-11-21T12:05:09;20.10;;;12.05;;
67889;SDS011;54685;52.082;5.426;2023-11-21T12:10:44;18.77;;;11.73;;
67889;SDS011;54685;52.082;5.426;2023-11-21T12:13:11;19.35;;;12.73;;
67889;SDS011;54685;52.082;5.426;2023-11-21T12:15:39;15.98;;;11.00;;
67889;SDS011;54685;52.082;5.426;2023-11-21T12:18:08;20.13;;;12.57;;
67889;SDS011;54685;52.082;5.426;2023-11-21T12:20:37;17.42;;;11.35;;
67889;SDS011;54685;52.082;5.426;2023-11-21T12:23:09;21.75;;;12.52;;
67889;SDS011;54685;52.082;5.426;2023-11-21T12:25:37;20.75;;;12.80;;
67889;SDS011;54685;52.082;5.426;2023-11-21T12:28:08;17.58;;;11.20;;
67889;SDS011;54685;52.082;5.426;2023-11-21T12:30:36;18.50;;;12.00;;
67889;SDS011;54685;52.082;5.426;2023-11-21T12:33:05;20.10;;;11.93;;
67889;SDS011;54685;52.082;5.426;2023-11-21T12:35:35;17.38;;;11.25;;
67889;SDS011;54685;52.082;5.426;2023-11-21T12:38:05;19.48;;;12.18;;
67889;SDS011;54685;52.082;5.426;2023-11-21T12:40:35;20.92;;;13.65;;
67889;SDS011;54685;52.082;5.426;2023-11-21T12:43:02;22.27;;;12.98;;
67889;SDS011;54685;52.082;5.426;2023-11-21T12:45:31;19.60;;;13.48;;
67889;SDS011;54685;52.082;5.426;2023-11-21T12:48:04;24.95;;;14.23;;
67889;SDS011;54685;52.082;5.426;2023-11-21T12:50:35;23.87;;;13.70;;
67889;SDS011;54685;52.082;5.426;2023-11-21T12:53:05;22.42;;;13.48;;
67889;SDS011;54685;52.082;5.426;2023-11-21T12:55:37;27.27;;;14.43;;
67889;SDS011;54685;52.082;5.426;2023-11-21T12:58:05;20.10;;;13.13;;
67889;SDS011;54685;52.082;5.426;2023-11-21T13:00:45;20.17;;;12.15;;
67889;SDS011;54685;52.082;5.426;2023-11-21T13:03:14;21.20;;;13.45;;
67889;SDS011;54685;52.082;5.426;2023-11-21T13:05:46;21.17;;;12.95;;
67889;SDS011;54685;52.082;5.426;2023-11-21T13:08:19;18.30;;;12.43;;
67889;SDS011;54685;52.082;5.426;2023-11-21T13:10:52;20.85;;;12.52;;
67889;SDS011;54685;52.082;5.426;2023-11-21T13:13:22;20.08;;;11.80;;
67889;SDS011;54685;52.082;5.426;2023-11-21T13:16:00;16.65;;;11.70;;
67889;SDS011;54685;52.082;5.426;2023-11-21T13:18:31;18.60;;;11.32;;
67889;SDS011;54685;52.082;5.426;2023-11-21T13:20:59;16.67;;;11.60;;
67889;SDS011;54685;52.082;5.426;2023-11-21T13:23:37;21.17;;;11.30;;
67889;SDS011;54685;52.082;5.426;2023-11-21T13:26:04;18.30;;;11.57;;
67889;SDS011;54685;52.082;5.426;2023-11-21T13:28:33;16.48;;;10.93;;
67889;SDS011;54685;52.082;5.426;2023-11-21T13:31:02;18.33;;;11.70;;
67889;SDS011;54685;52.082;5.426;2023-11-21T13:33:48;18.52;;;11.50;;
67889;SDS011;54685;52.082;5.426;2023-11-21T13:36:23;15.10;;;10.65;;
67889;SDS011;54685;52.082;5.426;2023-11-21T13:38:52;15.20;;;9.75;;
67889;SDS011;54685;52.082;5.426;2023-11-21T13:41:20;12.18;;;8.80;;
67889;SDS011;54685;52.082;5.426;2023-11-21T13:43:54;20.67;;;9.05;;
67889;SDS011;54685;52.082;5.426;2023-11-21T13:46:30;12.40;;;7.10;;
67889;SDS011;54685;52.082;5.426;2023-11-21T13:49:03;8.50;;;5.90;;
67889;SDS011;54685;52.082;5.426;2023-11-21T13:51:39;8.40;;;4.82;;
67889;SDS011;54685;52.082;5.426;2023-11-21T13:54:11;8.15;;;4.75;;
67889;SDS011;54685;52.082;5.426;2023-11-21T13:56:41;7.15;;;4.97;;
67889;SDS011;54685;52.082;5.426;2023-11-21T13:59:11;8.55;;;5.38;;
67889;SDS011;54685;52.082;5.426;2023-11-21T14:01:48;7.95;;;5.55;;
67889;SDS011;54685;52.082;5.426;2023-11-21T14:04:23;9.57;;;7.05;;
67889;SDS011;54685;52.082;5.426;2023-11-21T14:06:57;12.80;;;9.05;;
67889;SDS011;54685;52.082;5.426;2023-11-21T14:09:27;12.32;;;8.55;;
67889;SDS011;54685;52.082;5.426;2023-11-21T14:12:02;15.15;;;9.70;;
67889;SDS011;54685;52.082;5.426;2023-11-21T14:14:33;17.27;;;10.82;;
67889;SDS011;54685;52.082;5.426;2023-11-21T14:17:00;16.30;;;11.50;;
67889;SDS011;54685;52.082;5.426;2023-11-21T14:19:33;17.23;;;12.15;;
67889;SDS011;54685;52.082;5.426;2023-11-21T14:22:03;18.63;;;13.48;;
67889;SDS011;54685;52.082;5.426;2023-11-21T14:24:30;19.00;;;13.18;;
67889;SDS011;54685;52.082;5.426;2023-11-21T14:26:59;19.08;;;13.65;;
67889;SDS011;54685;52.082;5.426;2023-11-21T14:29:26;20.30;;;13.73;;
67889;SDS011;54685;52.082;5.426;2023-11-21T14:31:55;23.00;;;15.25;;
67889;SDS011;54685;52.082;5.426;2023-11-21T14:34:23;22.30;;;15.07;;
67889;SDS011;54685;52.082;5.426;2023-11-21T14:36:52;22.63;;;15.32;;
67889;SDS011;54685;52.082;5.426;2023-11-21T14:39:19;22.27;;;15.65;;
67889;SDS011;54685;52.082;5.426;2023-11-21T14:41:51;26.70;;;16.40;;
67889;SDS011;54685;52.082;5.426;2023-11-21T14:44:20;23.45;;;17.33;;
67889;SDS011;54685;52.082;5.426;2023-11-21T14:46:50;22.95;;;16.42;;
67889;SDS011;54685;52.082;5.426;2023-11-21T14:49:17;23.45;;;17.10;;
67889;SDS011;54685;52.082;5.426;2023-11-21T14:51:49;23.85;;;16.77;;